Time;durP1;ratioP1;P1;durP2;ratioP2;P2;SDS_P1;SDS_P2;PMS_P1;PMS_P2;Temp;Humidity;BMP_temperature;BMP_pressure;BME280_temperature;BME280_humidity;BME280_pressure;Samples;Min_cycle;Max_cycle;Signal;HPM_P1;HPM_P2
2021/01/09 00:01:41;;;;;;;26.30;19.30;;;;;;;1.10;76.21;99226.45;1807780;79;21482;-67
2021/01/09 00:04:09;;;;;;;29.35;20.72;;;;;;;1.10;76.40;99223.89;1807935;79;21137;-66
2021/01/09 00:06:39;;;;;;;30.60;21.30;;;;;;;1.13;76.33;99225.15;1807939;78;21572;-66
2021/01/09 00:09:08;;;;;;;29.65;19.85;;;;;;;1.12;76.30;99220.89;1807806;78;21327;-66
2021/01/09 00:11:36;;;;;;;29.15;19.73;;;;;;;1.09;76.30;99220.48;1807782;79;21132;-67
2021/01/09 00:14:04;;;;;;;27.32;19.57;;;;;;;1.06;76.36;99217.94;1807788;79;21062;-66
2021/01/09 00:16:32;;;;;;;27.10;17.80;;;;;;;1.03;76.42;99221.36;1807625;78;21057;-66
2021/01/09 00:19:00;;;;;;;25.32;16.97;;;;;;;1.05;76.50;99225.19;1807824;79;21128;-67
2021/01/09 00:21:35;;;;;;;25.95;18.05;;;;;;;1.07;76.50;99229.88;1807783;79;22852;-67
2021/01/09 00:24:06;;;;;;;25.75;18.35;;;;;;;1.11;76.52;99229.00;1807749;79;21009;-66
2021/01/09 00:26:35;;;;;;;27.55;20.02;;;;;;;1.15;76.46;99238.37;1807846;79;21042;-66
2021/01/09 00:29:05;;;;;;;25.40;18.25;;;;;;;1.20;76.36;99237.06;1807769;79;21489;-67
2021/01/09 00:31:33;;;;;;;26.10;18.85;;;;;;;1.23;76.29;99235.30;1807572;78;21524;-67
2021/01/09 00:34:01;;;;;;;30.50;19.65;;;;;;;1.27;76.18;99229.73;1807804;78;21362;-67
2021/01/09 00:36:29;;;;;;;23.10;17.90;;;;;;;1.29;76.07;99228.01;1807675;79;21919;-66
2021/01/09 00:38:57;;;;;;;23.95;17.80;;;;;;;1.30;76.02;99222.87;1807780;79;21137;-66
2021/01/09 00:41:30;;;;;;;25.30;18.55;;;;;;;1.34;75.92;99217.30;1807806;78;21073;-66
2021/01/09 00:43:59;;;;;;;26.90;19.92;;;;;;;1.37;75.77;99219.41;1807856;79;21029;-67
2021/01/09 00:46:26;;;;;;;26.80;18.92;;;;;;;1.35;75.65;99212.59;1807763;78;21573;-67
2021/01/09 00:48:54;;;;;;;26.00;18.95;;;;;;;1.33;75.56;99213.03;1807745;79;21097;-66
2021/01/09 00:51:22;;;;;;;25.80;18.90;;;;;;;1.27;75.61;99217.77;1807760;79;21049;-67
2021/01/09 00:53:49;;;;;;;25.65;18.15;;;;;;;1.24;75.78;99215.23;1807719;79;21552;-67
2021/01/09 00:56:17;;;;;;;23.98;18.60;;;;;;;1.25;75.80;99213.52;1807716;78;21062;-67
2021/01/09 00:58:45;;;;;;;25.48;19.25;;;;;;;1.27;75.95;99213.92;1807764;79;21369;-66
2021/01/09 01:01:12;;;;;;;25.80;19.05;;;;;;;1.33;75.88;99211.32;1807658;78;21982;-66
2021/01/09 01:03:45;;;;;;;26.37;19.75;;;;;;;1.37;75.77;99208.31;1807764;79;21066;-67
2021/01/09 01:06:11;;;;;;;29.50;20.12;;;;;;;1.37;75.65;99204.46;1807296;79;21069;-66
2021/01/09 01:08:39;;;;;;;27.20;19.00;;;;;;;1.35;75.62;99202.34;1807754;79;21074;-66
2021/01/09 01:11:09;;;;;;;39.15;24.75;;;;;;;1.32;75.65;99199.80;1807789;79;21371;-66
2021/01/09 01:13:37;;;;;;;38.78;26.30;;;;;;;1.30;75.69;99203.66;1807729;79;21132;-66
2021/01/09 01:16:06;;;;;;;35.92;24.82;;;;;;;1.30;75.90;99206.22;1807589;79;21258;-66
2021/01/09 01:18:33;;;;;;;33.70;22.85;;;;;;;1.30;75.84;99206.22;1807765;79;21057;-66
2021/01/09 01:21:02;;;;;;;27.62;19.62;;;;;;;1.27;75.76;99201.55;1807764;78;21068;-66
2021/01/09 01:23:30;;;;;;;27.80;19.70;;;;;;;1.16;75.83;99206.77;1807763;79;21358;-66
2021/01/09 01:25:58;;;;;;;27.17;18.77;;;;;;;1.06;76.10;99203.00;1807704;78;21159;-67
2021/01/09 01:28:26;;;;;;;24.80;18.70;;;;;;;0.98;76.48;99205.20;1807736;79;21623;-66
2021/01/09 01:30:53;;;;;;;25.77;18.65;;;;;;;0.99;76.73;99197.09;1807821;79;21060;-65
2021/01/09 01:33:21;;;;;;;25.23;18.42;;;;;;;1.01;76.78;99196.62;1807781;78;21050;-65
2021/01/09 01:35:48;;;;;;;30.27;19.50;;;;;;;1.03;76.83;99198.31;1807784;78;21241;-66
2021/01/09 01:38:18;;;;;;;25.40;18.17;;;;;;;1.06;76.94;99200.44;1807886;79;21125;-66
2021/01/09 01:40:45;;;;;;;27.65;19.07;;;;;;;1.07;76.89;99190.18;1808013;78;21585;-67
2021/01/09 01:43:13;;;;;;;26.50;19.25;;;;;;;1.07;76.93;99191.89;1807917;79;21050;-67
2021/01/09 01:45:41;;;;;;;27.13;20.00;;;;;;;1.08;76.90;99194.45;1808022;78;21505;-67
2021/01/09 01:48:10;;;;;;;25.92;19.42;;;;;;;1.06;76.90;99191.47;1808013;78;22274;-66
2021/01/09 01:50:39;;;;;;;24.67;19.67;;;;;;;1.03;77.01;99189.34;1807973;79;21546;-67
2021/01/09 01:53:07;;;;;;;35.45;19.55;;;;;;;1.01;77.02;99183.39;1807922;78;21121;-66
2021/01/09 01:55:34;;;;;;;27.35;19.12;;;;;;;0.99;76.90;99190.26;1807958;78;21478;-65
2021/01/09 01:58:02;;;;;;;27.90;19.12;;;;;;;0.91;77.09;99183.48;1808011;78;21469;-66
2021/01/09 02:00:30;;;;;;;27.85;20.25;;;;;;;0.88;77.38;99188.62;1807917;79;21208;-66
2021/01/09 02:03:01;;;;;;;28.40;19.87;;;;;;;0.85;77.47;99179.25;1807909;78;21551;-67
2021/01/09 02:05:37;;;;;;;24.02;18.15;;;;;;;0.82;77.55;99179.27;1807727;79;21657;-66
2021/01/09 02:08:08;;;;;;;30.08;19.57;;;;;;;0.80;77.59;99181.44;1807971;78;21061;-66
2021/01/09 02:10:35;;;;;;;27.20;19.82;;;;;;;0.79;77.77;99185.71;1808013;79;21144;-66
2021/01/09 02:13:19;;;;;;;30.27;21.35;;;;;;;0.80;77.93;99179.70;1807927;78;21230;-66
2021/01/09 02:15:50;;;;;;;28.77;21.65;;;;;;;0.82;77.93;99183.10;1807872;79;21113;-67
2021/01/09 02:18:18;;;;;;;27.10;19.77;;;;;;;0.81;78.04;99185.23;1813233;78;21105;-66
2021/01/09 02:20:49;;;;;;;27.87;19.60;;;;;;;0.83;78.03;99180.11;1813577;78;21176;-66
2021/01/09 02:23:21;;;;;;;30.45;20.72;;;;;;;0.84;78.07;99176.27;1813754;79;21557;-65
2021/01/09 02:25:50;;;;;;;30.85;20.62;;;;;;;0.89;78.28;99178.37;1787692;78;21581;-66
2021/01/09 02:28:18;;;;;;;29.27;20.70;;;;;;;0.98;78.31;99180.03;1813531;79;21545;-67
2021/01/09 02:30:47;;;;;;;31.12;21.23;;;;;;;1.05;78.14;99172.70;1813587;78;21581;-67
2021/01/09 02:33:15;;;;;;;28.30;19.98;;;;;;;1.12;77.94;99170.94;1813681;78;21482;-66
2021/01/09 02:35:43;;;;;;;27.95;19.50;;;;;;;1.12;77.73;99175.63;1813575;79;21060;-67
2021/01/09 02:38:10;;;;;;;28.02;19.15;;;;;;;1.16;77.71;99176.47;1813557;79;21248;-67
2021/01/09 02:40:42;;;;;;;25.20;18.32;;;;;;;1.17;77.70;99171.33;1786760;79;21108;-67
2021/01/09 02:43:13;;;;;;;25.35;19.12;;;;;;;1.21;77.63;99172.98;1813722;79;21105;-67
2021/01/09 02:45:41;;;;;;;28.52;19.45;;;;;;;1.22;77.48;99171.27;1813607;78;21050;-66
2021/01/09 02:48:11;;;;;;;27.85;19.12;;;;;;;1.19;77.42;99178.58;1813547;77;21109;-66
2021/01/09 02:50:40;;;;;;;24.12;17.95;;;;;;;1.18;77.45;99179.87;1813578;79;21183;-66
2021/01/09 02:53:07;;;;;;;23.65;17.67;;;;;;;1.17;77.51;99170.05;1813471;79;21917;-66
2021/01/09 02:55:35;;;;;;;27.55;19.67;;;;;;;1.15;77.43;99164.09;1813534;79;21089;-66
2021/01/09 02:58:03;;;;;;;28.15;20.10;;;;;;;1.13;77.62;99168.38;1813552;79;21049;-66
2021/01/09 03:00:30;;;;;;;27.75;19.90;;;;;;;1.12;77.59;99167.95;1813560;78;21782;-66
2021/01/09 03:02:58;;;;;;;27.48;19.25;;;;;;;1.13;77.78;99169.65;1813514;78;22192;-67
2021/01/09 03:05:26;;;;;;;27.22;19.70;;;;;;;1.16;77.73;99170.91;1813491;78;21132;-66
2021/01/09 03:07:53;;;;;;;26.68;19.85;;;;;;;1.18;77.72;99176.02;1813564;79;21033;-67
2021/01/09 03:10:21;;;;;;;30.25;21.93;;;;;;;1.21;77.71;99172.98;1813544;79;21057;-66
2021/01/09 03:12:48;;;;;;;34.67;22.77;;;;;;;1.26;77.66;99174.23;1813577;78;21101;-66
2021/01/09 03:15:16;;;;;;;29.18;21.52;;;;;;;1.29;77.64;99178.90;1813575;78;23362;-67
2021/01/09 03:17:43;;;;;;;29.90;20.57;;;;;;;1.31;77.53;99179.73;1805871;79;21056;-66
2021/01/09 03:20:12;;;;;;;30.77;21.15;;;;;;;1.33;77.44;99183.56;1799917;79;21069;-67
2021/01/09 03:22:40;;;;;;;26.75;19.92;;;;;;;1.32;77.21;99182.72;1800007;78;21088;-66
2021/01/09 03:25:12;;;;;;;26.87;19.37;;;;;;;1.24;77.34;99182.35;1799948;79;21140;-68
2021/01/09 03:27:39;;;;;;;28.55;20.27;;;;;;;1.22;77.68;99184.92;1799925;79;21364;-67
2021/01/09 03:30:10;;;;;;;26.33;19.37;;;;;;;1.27;77.75;99179.77;1799883;79;21553;-67
2021/01/09 03:32:37;;;;;;;28.45;21.10;;;;;;;1.30;77.67;99178.03;1799922;78;21085;-66
2021/01/09 03:35:07;;;;;;;27.32;19.45;;;;;;;1.33;77.62;99178.44;1799889;79;22057;-66
2021/01/09 03:37:34;;;;;;;28.30;19.98;;;;;;;1.35;77.41;99180.13;1799913;79;21067;-66
2021/01/09 03:40:04;;;;;;;29.32;20.80;;;;;;;1.33;77.34;99184.42;1799945;79;22085;-66
2021/01/09 03:42:33;;;;;;;28.20;20.72;;;;;;;1.33;77.37;99176.73;1799909;79;21060;-67
2021/01/09 03:45:02;;;;;;;28.92;21.00;;;;;;;1.29;77.39;99181.45;1799905;79;21045;-67
2021/01/09 03:47:30;;;;;;;27.80;20.57;;;;;;;1.25;77.58;99176.37;1800002;78;21063;-66
2021/01/09 03:49:58;;;;;;;26.82;20.05;;;;;;;1.25;77.62;99172.09;1800350;78;21642;-66
2021/01/09 03:52:26;;;;;;;28.52;19.85;;;;;;;1.20;77.51;99177.68;1800082;79;23443;-66
2021/01/09 03:54:53;;;;;;;27.30;20.17;;;;;;;1.13;77.67;99176.48;1799854;78;21060;-66
2021/01/09 03:57:22;;;;;;;25.05;19.17;;;;;;;1.14;78.03;99182.88;1799888;79;21498;-66
2021/01/09 03:59:50;;;;;;;28.52;20.20;;;;;;;1.15;77.90;99179.89;1799901;79;21557;-66
2021/01/09 04:02:17;;;;;;;26.37;19.60;;;;;;;1.14;78.09;99179.03;1799915;79;21112;-66
2021/01/09 04:04:45;;;;;;;29.95;19.57;;;;;;;1.18;78.21;99178.58;1799884;78;21362;-66
2021/01/09 04:07:13;;;;;;;26.33;19.92;;;;;;;1.21;78.09;99173.41;1799824;79;21080;-66
2021/01/09 04:09:41;;;;;;;26.52;19.27;;;;;;;1.21;77.99;99176.81;1799854;79;21040;-67
2021/01/09 04:12:09;;;;;;;26.77;20.57;;;;;;;1.22;77.98;99182.36;1799876;79;21124;-67
2021/01/09 04:14:37;;;;;;;33.40;21.73;;;;;;;1.20;77.93;99182.80;1799915;79;21141;-66
2021/01/09 04:17:04;;;;;;;31.48;20.82;;;;;;;1.16;78.03;99181.59;1799707;79;21592;-66
2021/01/09 04:19:32;;;;;;;33.33;22.15;;;;;;;1.14;78.12;99180.75;1799808;79;21065;-67
2021/01/09 04:22:00;;;;;;;28.40;21.48;;;;;;;1.11;78.14;99183.33;1799900;79;21041;-67
2021/01/09 04:24:28;;;;;;;31.57;22.48;;;;;;;1.08;78.26;99182.06;1799838;79;21125;-67
2021/01/09 04:26:58;;;;;;;31.82;21.45;;;;;;;1.09;78.40;99185.05;1799868;79;21640;-67
2021/01/09 04:29:26;;;;;;;32.48;21.35;;;;;;;1.11;78.46;99188.02;1799960;78;21437;-66
2021/01/09 04:31:54;;;;;;;27.77;19.80;;;;;;;1.13;78.52;99191.42;1799806;79;21076;-66
2021/01/09 04:34:23;;;;;;;27.20;19.20;;;;;;;1.20;78.45;99197.36;1799825;79;21042;-66
2021/01/09 04:36:51;;;;;;;25.30;18.87;;;;;;;1.24;78.22;99190.89;1799739;78;21065;-66
2021/01/09 04:39:21;;;;;;;31.20;20.97;;;;;;;1.23;78.06;99201.14;1799877;78;21076;-65
2021/01/09 04:41:48;;;;;;;29.00;20.72;;;;;;;1.21;78.04;99202.44;1799863;79;21200;-67
2021/01/09 04:44:16;;;;;;;29.40;19.60;;;;;;;1.22;78.25;99199.44;1799789;79;21160;-66
2021/01/09 04:46:55;;;;;;;26.57;19.55;;;;;;;1.28;78.19;99207.94;1799810;78;21084;-66
2021/01/09 04:49:25;;;;;;;25.15;18.57;;;;;;;1.30;77.92;99199.81;1799823;78;21061;-67
2021/01/09 04:51:54;;;;;;;27.65;19.17;;;;;;;1.28;77.78;99204.09;1799900;78;21066;-67
2021/01/09 04:54:25;;;;;;;23.00;17.40;;;;;;;1.22;77.74;99202.86;1799883;79;21352;-66
2021/01/09 04:56:54;;;;;;;26.23;18.62;;;;;;;1.16;77.80;99208.05;1799801;78;21091;-67
2021/01/09 04:59:23;;;;;;;27.40;18.25;;;;;;;1.14;77.97;99210.20;1799867;79;21057;-66
2021/01/09 05:01:52;;;;;;;29.72;19.48;;;;;;;1.11;78.03;99212.78;1799802;79;21512;-66
2021/01/09 05:04:20;;;;;;;27.00;19.12;;;;;;;1.08;78.02;99215.36;1799978;78;21061;-67
2021/01/09 05:06:48;;;;;;;25.12;18.23;;;;;;;1.02;78.07;99216.25;1799822;79;21286;-67
2021/01/09 05:09:16;;;;;;;27.25;18.25;;;;;;;0.98;78.24;99226.97;1799885;79;21624;-67
2021/01/09 05:11:45;;;;;;;24.02;17.57;;;;;;;0.97;78.23;99222.70;1799958;78;21049;-67
2021/01/09 05:14:13;;;;;;;23.30;17.40;;;;;;;0.92;78.30;99217.19;1799806;78;21044;-67
2021/01/09 05:16:41;;;;;;;24.23;18.17;;;;;;;0.86;78.46;99228.31;1799800;78;21069;-66
2021/01/09 05:19:09;;;;;;;28.87;18.27;;;;;;;0.86;78.68;99226.18;1799726;78;21332;-66
2021/01/09 05:21:37;;;;;;;24.30;18.20;;;;;;;0.87;78.77;99226.17;1799854;78;21112;-66
2021/01/09 05:24:09;;;;;;;25.10;19.98;;;;;;;0.91;78.78;99230.42;1799816;78;21045;-67
2021/01/09 05:26:37;;;;;;;26.20;18.57;;;;;;;0.94;78.68;99236.81;1800000;79;21132;-66
2021/01/09 05:29:06;;;;;;;25.02;18.87;;;;;;;0.99;78.52;99241.91;1759149;78;21212;-66
2021/01/09 05:31:37;;;;;;;28.12;19.37;;;;;;;0.98;78.51;99242.34;1799920;79;22256;-66
2021/01/09 05:34:05;;;;;;;27.70;19.92;;;;;;;1.01;78.49;99237.59;1799924;79;21481;-67
2021/01/09 05:36:33;;;;;;;29.23;19.80;;;;;;;1.06;78.39;99242.69;1799814;79;21458;-66
2021/01/09 05:39:03;;;;;;;26.40;19.17;;;;;;;1.06;78.28;99246.53;1799847;79;21077;-66
2021/01/09 05:41:31;;;;;;;24.15;17.92;;;;;;;1.06;78.16;99249.95;1799810;79;21076;-66
2021/01/09 05:44:04;;;;;;;24.57;17.77;;;;;;;1.01;78.13;99258.94;1799818;79;21199;-65
2021/01/09 05:46:37;;;;;;;28.12;18.98;;;;;;;0.97;78.29;99256.42;1799853;78;21081;-66
2021/01/09 05:49:08;;;;;;;21.48;17.35;;;;;;;0.94;78.31;99260.28;1799947;79;21057;-66
2021/01/09 05:51:38;;;;;;;24.18;17.35;;;;;;;0.92;78.38;99263.28;1799981;78;21112;-66
2021/01/09 05:54:09;;;;;;;27.52;18.62;;;;;;;0.92;78.62;99265.41;1799875;79;21254;-66
2021/01/09 05:56:40;;;;;;;27.27;19.37;;;;;;;0.95;78.57;99270.95;1799777;78;21509;-65
2021/01/09 05:59:09;;;;;;;23.92;18.62;;;;;;;0.92;78.49;99274.38;1799801;79;21532;-66
2021/01/09 06:01:37;;;;;;;26.02;19.30;;;;;;;0.90;78.67;99275.23;1784759;79;21138;-66
2021/01/09 06:04:19;;;;;;;25.10;18.35;;;;;;;0.92;78.78;99279.92;1784513;79;21048;-65
2021/01/09 06:07:06;;;;;;;27.75;18.85;;;;;;;0.96;78.78;99276.49;1799865;79;21136;-65
2021/01/09 06:09:41;;;;;;;26.27;18.85;;;;;;;0.99;78.84;99278.61;1799849;79;22438;-66
2021/01/09 06:12:10;;;;;;;26.90;19.70;;;;;;;1.03;78.78;99281.97;1785102;79;21140;-66
2021/01/09 06:14:37;;;;;;;25.02;18.52;;;;;;;1.07;78.72;99287.94;1799804;79;21100;-66
2021/01/09 06:17:05;;;;;;;27.50;19.23;;;;;;;1.10;78.73;99286.21;1758863;79;21116;-66
2021/01/09 06:19:32;;;;;;;26.57;19.25;;;;;;;1.11;78.53;99287.06;1806967;78;21478;-66
2021/01/09 06:22:02;;;;;;;25.77;18.77;;;;;;;1.08;78.55;99287.92;1807824;79;21199;-67
2021/01/09 06:24:29;;;;;;;34.38;20.37;;;;;;;1.11;78.63;99289.63;1753684;79;21108;-66
2021/01/09 06:26:59;;;;;;;34.55;19.87;;;;;;;1.16;78.69;99293.02;1779623;79;21125;-66
2021/01/09 06:29:29;;;;;;;37.55;23.42;;;;;;;1.21;78.50;99290.81;1807967;79;21121;-66
2021/01/09 06:32:05;;;;;;;31.75;21.27;;;;;;;1.24;78.36;99289.52;1808000;79;21580;-66
2021/01/09 06:34:33;;;;;;;30.12;19.90;;;;;;;1.26;78.30;99295.91;1808068;79;21467;-65
2021/01/09 06:37:03;;;;;;;27.20;19.27;;;;;;;1.28;78.20;99298.89;1807777;79;21057;-66
2021/01/09 06:39:36;;;;;;;25.77;18.00;;;;;;;1.30;78.21;99309.13;1808031;78;21053;-67
2021/01/09 06:42:06;;;;;;;25.17;19.17;;;;;;;1.36;78.19;99305.25;1807975;78;21160;-67
2021/01/09 06:44:34;;;;;;;27.98;19.70;;;;;;;1.37;78.11;99311.66;1807998;79;21057;-67
2021/01/09 06:47:02;;;;;;;33.13;21.60;;;;;;;1.43;78.04;99313.30;1807842;78;21499;-67
2021/01/09 06:49:30;;;;;;;36.55;22.48;;;;;;;1.48;78.00;99315.84;1807903;79;21120;-67
2021/01/09 06:52:03;;;;;;;32.80;21.95;;;;;;;1.50;77.66;99316.67;1807880;78;21144;-67
2021/01/09 06:54:44;;;;;;;32.60;20.20;;;;;;;1.45;77.57;99315.42;1807857;78;21136;-67
2021/01/09 06:57:20;;;;;;;30.32;19.52;;;;;;;1.41;77.86;99314.16;1807906;79;21053;-67
2021/01/09 06:59:50;;;;;;;23.12;18.07;;;;;;;1.45;77.97;99326.10;1807484;78;21348;-67
2021/01/09 07:02:23;;;;;;;24.92;18.80;;;;;;;1.46;78.03;99322.68;1807838;79;21560;-66
2021/01/09 07:05:00;;;;;;;36.45;21.93;;;;;;;1.47;78.04;99320.11;1807807;79;21097;-67
2021/01/09 07:07:35;;;;;;;31.30;19.90;;;;;;;1.49;77.97;99320.10;1807937;79;21101;-66
2021/01/09 07:10:26;;;;;;;27.25;18.77;;;;;;;1.53;78.10;99325.20;1807912;78;21065;-66
2021/01/09 07:12:58;;;;;;;24.60;18.85;;;;;;;1.63;77.83;99320.41;1807861;79;21366;-66
2021/01/09 07:15:26;;;;;;;28.87;19.30;;;;;;;1.66;77.76;99319.53;1807890;78;21168;-67
2021/01/09 07:18:00;;;;;;;25.02;18.15;;;;;;;1.67;77.57;99327.65;1778879;79;21057;-66
2021/01/09 07:20:43;;;;;;;25.17;18.17;;;;;;;1.70;77.69;99334.04;1807745;78;28074;-66
2021/01/09 07:23:13;;;;;;;26.87;17.75;;;;;;;1.73;77.57;99326.33;1808166;79;25385;-66
2021/01/09 07:25:45;;;;;;;27.20;18.52;;;;;;;1.77;77.41;99332.28;1779028;78;21500;-66
2021/01/09 07:28:19;;;;;;;21.47;16.10;;;;;;;1.78;77.45;99333.98;1808071;78;21081;-68
2021/01/09 07:30:46;;;;;;;;;;;;;;;1.84;77.12;99337.33;1810635;78;21164;-66
2021/01/09 07:33:14;;;;;;;23.38;17.15;;;;;;;1.81;76.99;99342.91;1807860;78;20213;-67
2021/01/09 07:35:45;;;;;;;29.25;21.50;;;;;;;1.77;77.12;99343.39;1807908;79;21474;-67
2021/01/09 07:38:13;;;;;;;24.82;18.50;;;;;;;1.77;77.11;99344.67;1807803;78;21433;-67
2021/01/09 07:40:56;;;;;;;22.90;18.17;;;;;;;1.80;77.16;99340.77;1807755;78;21507;-67
2021/01/09 07:43:46;;;;;;;;;;;;;;;1.84;77.04;99343.73;1810543;79;21050;-66
2021/01/09 07:46:30;;;;;;;21.82;17.73;;;;;;;1.86;76.97;99339.45;1807818;78;20212;-66
2021/01/09 07:49:02;;;;;;;31.40;23.12;;;;;;;1.91;76.96;99344.55;1807962;79;21517;-67
2021/01/09 07:51:54;;;;;;;24.75;19.30;;;;;;;1.92;76.84;99340.69;1807841;79;21381;-67
2021/01/09 07:54:30;;;;;;;36.70;22.17;;;;;;;1.94;76.63;99345.37;1807883;79;21054;-67
2021/01/09 07:56:58;;;;;;;30.65;20.05;;;;;;;1.95;76.69;99344.52;1807966;78;21113;-66
2021/01/09 07:59:25;;;;;;;34.63;23.62;;;;;;;1.99;76.52;99346.20;1807951;79;21064;-67
2021/01/09 08:01:53;;;;;;;25.97;18.95;;;;;;;2.02;76.42;99347.85;1807808;79;21487;-67
2021/01/09 08:04:21;;;;;;;24.52;18.48;;;;;;;2.05;76.21;99351.68;1807800;79;21350;-66
2021/01/09 08:06:50;;;;;;;28.50;19.52;;;;;;;2.08;76.00;99352.94;1807374;78;21133;-67
2021/01/09 08:09:17;;;;;;;25.35;18.07;;;;;;;2.08;76.13;99352.51;1808354;79;21601;-67
2021/01/09 08:11:46;;;;;;;27.13;18.27;;;;;;;2.14;75.99;99355.89;1807819;79;21501;-67
2021/01/09 08:14:15;;;;;;;22.02;17.70;;;;;;;2.20;75.89;99360.97;1807829;79;21062;-68
2021/01/09 08:16:43;;;;;;;29.42;18.55;;;;;;;2.24;75.48;99359.63;1807765;78;21202;-68
2021/01/09 08:19:19;;;;;;;28.40;18.48;;;;;;;2.24;75.38;99361.34;1807608;79;21061;-68
2021/01/09 08:21:47;;;;;;;26.85;18.67;;;;;;;2.23;75.15;99362.20;1807774;79;21144;-67
2021/01/09 08:24:26;;;;;;;26.77;18.52;;;;;;;2.19;75.17;99362.69;1807897;79;21593;-68
2021/01/09 08:26:55;;;;;;;24.57;17.77;;;;;;;2.21;75.33;99359.64;1807868;78;21057;-68
2021/01/09 08:29:27;;;;;;;29.27;18.07;;;;;;;2.25;75.39;99357.91;1778660;79;21320;-67
2021/01/09 08:31:55;;;;;;;25.88;17.70;;;;;;;2.33;75.14;99356.98;1808083;78;21080;-68
2021/01/09 08:34:24;;;;;;;25.77;19.07;;;;;;;2.37;74.70;99364.22;1808421;78;21073;-66
2021/01/09 08:36:56;;;;;;;24.90;18.20;;;;;;;2.37;74.64;99356.09;1808769;79;21038;-66
2021/01/09 08:39:24;;;;;;;22.62;16.93;;;;;;;2.37;74.35;99353.95;1808685;78;21478;-67
2021/01/09 08:41:52;;;;;;;23.00;17.32;;;;;;;2.33;74.24;99353.56;1807863;79;21498;-67
2021/01/09 08:44:19;;;;;;;32.30;18.02;;;;;;;2.32;74.26;99351.86;1808305;78;21121;-68
2021/01/09 08:46:47;;;;;;;24.20;17.15;;;;;;;2.35;74.44;99347.55;1808158;78;21625;-69
2021/01/09 08:49:28;;;;;;;27.15;18.85;;;;;;;2.40;74.12;99353.46;1808045;78;21058;-67
2021/01/09 08:52:06;;;;;;;28.70;18.20;;;;;;;2.39;74.09;99351.80;1778745;79;21049;-68
2021/01/09 08:54:34;;;;;;;27.65;18.87;;;;;;;2.42;74.09;99346.59;1807795;79;21379;-67
2021/01/09 08:57:04;;;;;;;29.45;17.77;;;;;;;2.43;73.99;99347.02;1778781;79;21093;-66
2021/01/09 08:59:33;;;;;;;23.87;16.10;;;;;;;2.46;73.67;99347.85;1807753;78;21148;-67
2021/01/09 09:02:02;;;;;;;26.30;16.82;;;;;;;2.43;73.72;99348.30;1807783;78;21462;-67
2021/01/09 09:04:29;;;;;;;20.80;16.15;;;;;;;2.43;73.42;99348.73;1807761;79;21113;-68
2021/01/09 09:07:05;;;;;;;25.75;16.12;;;;;;;2.42;73.27;99335.05;1778768;79;22005;-67
2021/01/09 09:09:34;;;;;;;24.02;15.38;;;;;;;2.42;73.09;99337.61;1779076;79;21073;-67
2021/01/09 09:12:01;;;;;;;22.07;16.50;;;;;;;2.38;73.20;99335.97;1807744;79;21145;-67
2021/01/09 09:14:30;;;;;;;21.15;14.83;;;;;;;2.37;73.16;99334.70;1807767;79;21131;-66
2021/01/09 09:17:03;;;;;;;22.65;14.20;;;;;;;2.33;72.76;99332.59;1807752;78;21132;-66
2021/01/09 09:19:38;;;;;;;30.00;15.70;;;;;;;2.23;72.70;99339.11;1803759;79;21358;-68
2021/01/09 09:22:06;;;;;;;23.40;16.02;;;;;;;2.13;72.89;99326.81;1799825;79;21088;-68
2021/01/09 09:24:44;;;;;;;20.30;15.23;;;;;;;2.13;72.96;99334.52;1799846;78;21136;-67
2021/01/09 09:27:31;;;;;;;25.27;16.57;;;;;;;2.14;72.81;99328.95;1799860;79;21077;-67
2021/01/09 09:30:08;;;;;;;25.05;14.33;;;;;;;2.13;72.50;99340.08;1795992;78;21155;-66
2021/01/09 09:32:36;;;;;;;18.55;14.63;;;;;;;2.05;72.44;99323.03;1799931;79;22312;-66
2021/01/09 09:35:27;;;;;;;19.67;15.13;;;;;;;2.00;72.58;99329.91;1799787;79;21131;-67
2021/01/09 09:37:59;;;;;;;22.95;15.50;;;;;;;1.99;72.81;99332.09;1799921;78;21493;-67
2021/01/09 09:40:28;;;;;;;19.12;13.20;;;;;;;2.00;72.76;99335.05;1799963;78;21462;-66
2021/01/09 09:43:17;;;;;;;20.20;14.78;;;;;;;1.97;72.48;99337.66;1799960;78;21541;-66
2021/01/09 09:46:04;;;;;;;22.62;13.95;;;;;;;1.91;72.55;99331.30;1799843;79;21481;-67
2021/01/09 09:48:34;;;;;;;18.65;13.48;;;;;;;1.87;72.57;99332.61;1799799;78;21076;-66
2021/01/09 09:51:10;;;;;;;22.82;13.93;;;;;;;1.83;73.02;99327.08;1799918;78;21485;-68
2021/01/09 09:53:40;;;;;;;18.80;12.82;;;;;;;1.82;73.07;99325.38;1799799;78;21132;-68
2021/01/09 09:56:22;;;;;;;22.20;14.58;;;;;;;1.84;73.17;99333.48;1799841;79;21109;-67
2021/01/09 09:59:00;;;;;;;19.20;13.62;;;;;;;1.85;73.26;99336.89;1799976;78;21203;-66
2021/01/09 10:01:32;;;;;;;19.12;13.20;;;;;;;1.85;73.13;99330.05;1800010;79;21545;-66
2021/01/09 10:04:02;;;;;;;18.32;12.20;;;;;;;1.85;72.67;99327.92;1800099;78;21120;-69
2021/01/09 10:06:40;;;;;;;15.93;12.35;;;;;;;1.84;72.04;99328.78;1800076;78;21100;-66
2021/01/09 10:09:15;;;;;;;28.00;14.90;;;;;;;1.83;71.74;99325.38;1800011;79;21102;-67
2021/01/09 10:11:43;;;;;;;19.65;14.43;;;;;;;1.83;72.01;99321.52;1800106;78;21381;-67
2021/01/09 10:14:12;;;;;;;21.52;13.58;;;;;;;1.85;71.94;99326.20;1798225;78;21076;-66
2021/01/09 10:16:39;;;;;;;19.48;14.33;;;;;;;1.86;71.61;99321.50;1799901;79;21231;-67
2021/01/09 10:19:10;;;;;;;25.10;14.28;;;;;;;1.87;71.84;99323.20;1799779;79;21976;-67
2021/01/09 10:21:39;;;;;;;17.27;12.05;;;;;;;1.92;71.92;99321.45;1800026;78;21561;-68
2021/01/09 10:24:07;;;;;;;17.27;12.60;;;;;;;1.96;71.36;99319.28;1799960;79;21334;-66
2021/01/09 10:26:35;;;;;;;21.97;13.98;;;;;;;1.98;70.94;99320.55;1799864;79;21509;-67
2021/01/09 10:29:03;;;;;;;20.62;13.88;;;;;;;1.96;71.08;99323.13;1799892;79;21057;-68
2021/01/09 10:31:36;;;;;;;24.05;14.47;;;;;;;1.95;71.21;99317.59;1799923;78;21096;-67
2021/01/09 10:34:06;;;;;;;22.95;13.18;;;;;;;1.98;71.28;99320.55;1800214;78;21064;-67
2021/01/09 10:36:36;;;;;;;19.87;14.18;;;;;;;2.05;71.34;99319.61;1799909;78;21370;-67
2021/01/09 10:39:05;;;;;;;19.15;14.53;;;;;;;2.08;70.79;99316.59;1799889;79;21100;-67
2021/01/09 10:41:34;;;;;;;16.20;12.15;;;;;;;2.12;70.87;99310.16;1799911;78;21481;-67
2021/01/09 10:44:05;;;;;;;21.00;12.05;;;;;;;2.21;70.42;99308.33;1799969;79;21056;-67
2021/01/09 10:46:33;;;;;;;14.58;10.75;;;;;;;2.26;69.70;99317.27;1799916;78;21097;-66
2021/01/09 10:49:01;;;;;;;14.65;11.18;;;;;;;2.30;69.17;99317.66;1799940;79;21146;-67
2021/01/09 10:51:29;;;;;;;23.45;11.28;;;;;;;2.34;68.98;99316.77;1799956;79;21592;-67
2021/01/09 10:53:57;;;;;;;14.40;11.53;;;;;;;2.35;68.50;99311.62;1799980;78;21144;-67
2021/01/09 10:56:25;;;;;;;15.60;12.07;;;;;;;2.37;68.54;99315.02;1799997;79;21053;-67
2021/01/09 10:58:53;;;;;;;20.72;12.43;;;;;;;2.51;68.16;99308.88;1799918;78;21497;-67
2021/01/09 11:01:21;;;;;;;22.80;11.65;;;;;;;2.64;67.83;99311.27;1799937;79;21433;-67
2021/01/09 11:03:49;;;;;;;23.20;13.00;;;;;;;2.81;67.33;99307.63;1799858;78;21123;-67
2021/01/09 11:06:22;;;;;;;16.97;12.85;;;;;;;2.94;67.06;99306.63;1800002;78;21127;-67
2021/01/09 11:08:49;;;;;;;17.92;12.68;;;;;;;3.07;66.76;99301.72;1799944;78;21505;-67
2021/01/09 11:11:17;;;;;;;18.48;12.85;;;;;;;3.16;66.31;99300.76;1799926;79;21147;-69
2021/01/09 11:13:44;;;;;;;21.27;12.63;;;;;;;3.17;66.16;99302.45;1799914;78;21516;-68
2021/01/09 11:16:12;;;;;;;16.75;13.88;;;;;;;3.12;66.21;99302.52;1799859;79;21109;-67
2021/01/09 11:18:40;;;;;;;20.52;12.58;;;;;;;3.06;66.38;99302.59;1784436;79;21112;-66
2021/01/09 11:21:08;;;;;;;14.70;11.70;;;;;;;3.02;66.46;99300.49;1799857;78;21121;-66
2021/01/09 11:23:35;;;;;;;14.33;12.10;;;;;;;2.95;66.26;99305.75;1784443;79;21489;-67
2021/01/09 11:26:03;;;;;;;15.03;12.18;;;;;;;2.84;66.27;99313.59;1799943;79;21269;-67
2021/01/09 11:28:31;;;;;;;19.80;11.95;;;;;;;2.73;66.39;99317.59;1799840;79;21136;-67
2021/01/09 11:30:59;;;;;;;24.67;12.60;;;;;;;2.63;66.56;99315.13;1799891;79;21536;-67
2021/01/09 11:33:28;;;;;;;22.45;11.88;;;;;;;2.50;66.64;99317.00;1799846;78;21148;-68
2021/01/09 11:35:56;;;;;;;13.75;9.78;;;;;;;2.34;67.06;99314.20;1799892;78;21081;-67
2021/01/09 11:38:23;;;;;;;17.92;11.10;;;;;;;2.25;67.48;99313.00;1799915;79;23641;-66
2021/01/09 11:40:51;;;;;;;14.43;10.75;;;;;;;2.21;67.77;99314.74;1799879;78;21141;-67